sensor_id;sensor_type;location;lat;lon;timestamp;pressure;altitude;pressure_sealevel;temperature
70668;BMP280;58242;51.250;-1.118;2023-02-28T00:00:11;101917.03;;;9.09
70668;BMP280;58242;51.250;-1.118;2023-02-28T00:02:39;101912.25;;;9.06
70668;BMP280;58242;51.250;-1.118;2023-02-28T00:05:05;101915.97;;;9.05
70668;BMP280;58242;51.250;-1.118;2023-02-28T00:07:31;101918.13;;;9.03
70668;BMP280;58242;51.250;-1.118;2023-02-28T00:09:57;101917.56;;;9.01
70668;BMP280;58242;51.250;-1.118;2023-02-28T00:12:23;101914.41;;;8.99
70668;BMP280;58242;51.250;-1.118;2023-02-28T00:14:49;101919.19;;;8.97
70668;BMP280;58242;51.250;-1.118;2023-02-28T00:17:14;101923.19;;;8.95
70668;BMP280;58242;51.250;-1.118;2023-02-28T00:19:40;101928.03;;;8.93
70668;BMP280;58242;51.250;-1.118;2023-02-28T00:22:05;101929.06;;;8.92
70668;BMP280;58242;51.250;-1.118;2023-02-28T00:24:30;101934.66;;;8.90
70668;BMP280;58242;51.250;-1.118;2023-02-28T00:26:56;101924.53;;;8.88
70668;BMP280;58242;51.250;-1.118;2023-02-28T00:29:21;101930.13;;;8.86
70668;BMP280;58242;51.250;-1.118;2023-02-28T00:31:46;101939.22;;;8.85
70668;BMP280;58242;51.250;-1.118;2023-02-28T00:34:12;101931.75;;;8.82
70668;BMP280;58242;51.250;-1.118;2023-02-28T00:36:37;101940.84;;;8.81
70668;BMP280;58242;51.250;-1.118;2023-02-28T00:39:03;101936.81;;;8.79
70668;BMP280;58242;51.250;-1.118;2023-02-28T00:41:28;101936.00;;;8.78
70668;BMP280;58242;51.250;-1.118;2023-02-28T00:43:53;101930.97;;;8.77
70668;BMP280;58242;51.250;-1.118;2023-02-28T00:46:19;101939.22;;;8.75
70668;BMP280;58242;51.250;-1.118;2023-02-28T00:48:44;101937.88;;;8.73
70668;BMP280;58242;51.250;-1.118;2023-02-28T00:51:09;101938.94;;;8.72
70668;BMP280;58242;51.250;-1.118;2023-02-28T00:53:35;101938.16;;;8.71
70668;BMP280;58242;51.250;-1.118;2023-02-28T00:56:00;101947.50;;;8.69
70668;BMP280;58242;51.250;-1.118;2023-02-28T00:58:26;101943.22;;;8.68
70668;BMP280;58242;51.250;-1.118;2023-02-28T01:00:52;101947.22;;;8.66
70668;BMP280;58242;51.250;-1.118;2023-02-28T01:03:18;101953.38;;;8.66
70668;BMP280;58242;51.250;-1.118;2023-02-28T01:05:44;101950.44;;;8.63
70668;BMP280;58242;51.250;-1.118;2023-02-28T01:08:09;101945.34;;;8.61
70668;BMP280;58242;51.250;-1.118;2023-02-28T01:10:34;101958.94;;;8.60
70668;BMP280;58242;51.250;-1.118;2023-02-28T01:13:02;101956.56;;;8.58
70668;BMP280;58242;51.250;-1.118;2023-02-28T01:15:27;101960.28;;;8.57
70668;BMP280;58242;51.250;-1.118;2023-02-28T01:17:52;101960.00;;;8.54
70668;BMP280;58242;51.250;-1.118;2023-02-28T01:20:18;101962.13;;;8.52
70668;BMP280;58242;51.250;-1.118;2023-02-28T01:22:43;101964.53;;;8.49
70668;BMP280;58242;51.250;-1.118;2023-02-28T01:25:08;101960.28;;;8.48
70668;BMP280;58242;51.250;-1.118;2023-02-28T01:27:34;101958.13;;;8.45
70668;BMP280;58242;51.250;-1.118;2023-02-28T01:30:01;101972.00;;;8.42
70668;BMP280;58242;51.250;-1.118;2023-02-28T01:32:26;101972.53;;;8.39
70668;BMP280;58242;51.250;-1.118;2023-02-28T01:34:51;101971.97;;;8.37
70668;BMP280;58242;51.250;-1.118;2023-02-28T01:37:17;101966.13;;;8.35
70668;BMP280;58242;51.250;-1.118;2023-02-28T01:39:42;101967.47;;;8.33
70668;BMP280;58242;51.250;-1.118;2023-02-28T01:42:09;101971.44;;;8.30
70668;BMP280;58242;51.250;-1.118;2023-02-28T01:44:55;101964.78;;;8.28
70668;BMP280;58242;51.250;-1.118;2023-02-28T01:47:21;101963.94;;;8.22
70668;BMP280;58242;51.250;-1.118;2023-02-28T01:49:47;101962.63;;;8.20
70668;BMP280;58242;51.250;-1.118;2023-02-28T01:52:14;101961.28;;;8.18
70668;BMP280;58242;51.250;-1.118;2023-02-28T01:54:46;101954.34;;;8.17
70668;BMP280;58242;51.250;-1.118;2023-02-28T01:57:15;101955.94;;;8.13
70668;BMP280;58242;51.250;-1.118;2023-02-28T02:00:03;101954.88;;;8.09
70668;BMP280;58242;51.250;-1.118;2023-02-28T02:02:31;101959.66;;;8.07
70668;BMP280;58242;51.250;-1.118;2023-02-28T02:07:33;101961.50;;;8.02
70668;BMP280;58242;51.250;-1.118;2023-02-28T02:18:29;101956.91;;;7.87
70668;BMP280;58242;51.250;-1.118;2023-02-28T02:21:22;101962.75;;;7.85
70668;BMP280;58242;51.250;-1.118;2023-02-28T02:24:03;101957.41;;;7.85
70668;BMP280;58242;51.250;-1.118;2023-02-28T02:29:24;101960.09;;;7.80
70668;BMP280;58242;51.250;-1.118;2023-02-28T02:35:04;101957.38;;;7.75
70668;BMP280;58242;51.250;-1.118;2023-02-28T02:37:39;101967.75;;;7.71
70668;BMP280;58242;51.250;-1.118;2023-02-28T02:40:18;101959.22;;;7.69
70668;BMP280;58242;51.250;-1.118;2023-02-28T02:45:35;101964.25;;;7.66
70668;BMP280;58242;51.250;-1.118;2023-02-28T02:48:04;101966.41;;;7.64
70668;BMP280;58242;51.250;-1.118;2023-02-28T02:50:36;101974.38;;;7.64
70668;BMP280;58242;51.250;-1.118;2023-02-28T02:53:04;101968.50;;;7.62
70668;BMP280;58242;51.250;-1.118;2023-02-28T02:55:34;101972.25;;;7.61
70668;BMP280;58242;51.250;-1.118;2023-02-28T02:58:01;101960.72;;;7.51
70668;BMP280;58242;51.250;-1.118;2023-02-28T03:00:44;101959.91;;;7.51
70668;BMP280;58242;51.250;-1.118;2023-02-28T03:03:12;101953.78;;;7.50
70668;BMP280;58242;51.250;-1.118;2023-02-28T03:05:49;101958.59;;;7.48
70668;BMP280;58242;51.250;-1.118;2023-02-28T03:08:15;101970.28;;;7.47
70668;BMP280;58242;51.250;-1.118;2023-02-28T03:10:46;101958.31;;;7.45
70668;BMP280;58242;51.250;-1.118;2023-02-28T03:21:14;101960.38;;;7.33
70668;BMP280;58242;51.250;-1.118;2023-02-28T03:23:50;101964.59;;;7.29
70668;BMP280;58242;51.250;-1.118;2023-02-28T03:26:26;101964.06;;;7.27
70668;BMP280;58242;51.250;-1.118;2023-02-28T03:31:44;101964.28;;;7.21
70668;BMP280;58242;51.250;-1.118;2023-02-28T03:34:22;101963.75;;;7.19
70668;BMP280;58242;51.250;-1.118;2023-02-28T03:36:57;101956.25;;;7.16
70668;BMP280;58242;51.250;-1.118;2023-02-28T03:39:30;101962.91;;;7.14
70668;BMP280;58242;51.250;-1.118;2023-02-28T03:42:00;101954.41;;;7.12
70668;BMP280;58242;51.250;-1.118;2023-02-28T03:44:30;101956.75;;;7.08
70668;BMP280;58242;51.250;-1.118;2023-02-28T03:47:04;101950.88;;;7.06
70668;BMP280;58242;51.250;-1.118;2023-02-28T03:49:36;101942.63;;;7.03
70668;BMP280;58242;51.250;-1.118;2023-02-28T03:52:06;101948.19;;;7.01
70668;BMP280;58242;51.250;-1.118;2023-02-28T03:54:35;101953.22;;;6.98
70668;BMP280;58242;51.250;-1.118;2023-02-28T03:59:39;101947.06;;;6.93
70668;BMP280;58242;51.250;-1.118;2023-02-28T04:02:07;101963.28;;;6.91
70668;BMP280;58242;51.250;-1.118;2023-02-28T04:04:33;101962.75;;;6.89
70668;BMP280;58242;51.250;-1.118;2023-02-28T04:07:05;101964.03;;;6.87
70668;BMP280;58242;51.250;-1.118;2023-02-28T04:09:30;101952.06;;;6.84
70668;BMP280;58242;51.250;-1.118;2023-02-28T04:11:55;101950.44;;;6.83
70668;BMP280;58242;51.250;-1.118;2023-02-28T04:14:21;101957.91;;;6.82
70668;BMP280;58242;51.250;-1.118;2023-02-28T04:16:47;101959.19;;;6.79
70668;BMP280;58242;51.250;-1.118;2023-02-28T04:19:13;101961.31;;;6.77
70668;BMP280;58242;51.250;-1.118;2023-02-28T04:21:50;101968.72;;;6.75
70668;BMP280;58242;51.250;-1.118;2023-02-28T04:24:21;101971.66;;;6.74
70668;BMP280;58242;51.250;-1.118;2023-02-28T04:26:49;101970.56;;;6.70
70668;BMP280;58242;51.250;-1.118;2023-02-28T04:31:48;101979.56;;;6.69
70668;BMP280;58242;51.250;-1.118;2023-02-28T04:34:14;101972.91;;;6.66
70668;BMP280;58242;51.250;-1.118;2023-02-28T04:36:39;101969.47;;;6.66
70668;BMP280;58242;51.250;-1.118;2023-02-28T04:39:05;101980.91;;;6.66
70668;BMP280;58242;51.250;-1.118;2023-02-28T04:41:30;101981.13;;;6.65
70668;BMP280;58242;51.250;-1.118;2023-02-28T04:43:55;101986.44;;;6.65
70668;BMP280;58242;51.250;-1.118;2023-02-28T04:46:21;101982.19;;;6.64
70668;BMP280;58242;51.250;-1.118;2023-02-28T04:48:46;101981.38;;;6.64
70668;BMP280;58242;51.250;-1.118;2023-02-28T04:51:13;101986.69;;;6.64
70668;BMP280;58242;51.250;-1.118;2023-02-28T04:53:40;101981.38;;;6.64
70668;BMP280;58242;51.250;-1.118;2023-02-28T04:56:07;101985.91;;;6.63
70668;BMP280;58242;51.250;-1.118;2023-02-28T04:58:33;101980.59;;;6.63
70668;BMP280;58242;51.250;-1.118;2023-02-28T05:01:13;101985.91;;;6.63
70668;BMP280;58242;51.250;-1.118;2023-02-28T05:03:41;101980.59;;;6.63
70668;BMP280;58242;51.250;-1.118;2023-02-28T05:06:07;101987.50;;;6.64
70668;BMP280;58242;51.250;-1.118;2023-02-28T05:08:33;101986.69;;;6.64
70668;BMP280;58242;51.250;-1.118;2023-02-28T05:10:59;101988.56;;;6.63
70668;BMP280;58242;51.250;-1.118;2023-02-28T05:13:26;101989.34;;;6.64
70668;BMP280;58242;51.250;-1.118;2023-02-28T05:15:51;101984.84;;;6.64
70668;BMP280;58242;51.250;-1.118;2023-02-28T05:18:17;101989.63;;;6.62
70668;BMP280;58242;51.250;-1.118;2023-02-28T05:20:42;101997.03;;;6.60
70668;BMP280;58242;51.250;-1.118;2023-02-28T05:23:08;102003.41;;;6.59
70668;BMP280;58242;51.250;-1.118;2023-02-28T05:25:35;101999.97;;;6.59
70668;BMP280;58242;51.250;-1.118;2023-02-28T05:28:01;102013.47;;;6.57
70668;BMP280;58242;51.250;-1.118;2023-02-28T05:30:26;102003.66;;;6.58
70668;BMP280;58242;51.250;-1.118;2023-02-28T05:32:51;102012.69;;;6.57
70668;BMP280;58242;51.250;-1.118;2023-02-28T05:35:17;101997.78;;;6.56
70668;BMP280;58242;51.250;-1.118;2023-02-28T05:37:42;102014.81;;;6.55
70668;BMP280;58242;51.250;-1.118;2023-02-28T05:40:08;101999.09;;;6.53
70668;BMP280;58242;51.250;-1.118;2023-02-28T05:42:36;102008.38;;;6.51
70668;BMP280;58242;51.250;-1.118;2023-02-28T05:45:03;102002.25;;;6.50
70668;BMP280;58242;51.250;-1.118;2023-02-28T05:47:28;102009.94;;;6.47
70668;BMP280;58242;51.250;-1.118;2023-02-28T05:49:53;102002.47;;;6.44
70668;BMP280;58242;51.250;-1.118;2023-02-28T05:52:18;102007.22;;;6.42
70668;BMP280;58242;51.250;-1.118;2023-02-28T05:54:46;102003.75;;;6.42
70668;BMP280;58242;51.250;-1.118;2023-02-28T05:57:11;102003.47;;;6.38
70668;BMP280;58242;51.250;-1.118;2023-02-28T05:59:36;102011.69;;;6.37
70668;BMP280;58242;51.250;-1.118;2023-02-28T06:02:12;102012.19;;;6.34
70668;BMP280;58242;51.250;-1.118;2023-02-28T06:04:37;102010.03;;;6.31
70668;BMP280;58242;51.250;-1.118;2023-02-28T06:07:03;102017.47;;;6.29
70668;BMP280;58242;51.250;-1.118;2023-02-28T06:09:28;102016.88;;;6.27
70668;BMP280;58242;51.250;-1.118;2023-02-28T06:11:54;102009.16;;;6.26
70668;BMP280;58242;51.250;-1.118;2023-02-28T06:14:20;102006.78;;;6.24
70668;BMP280;58242;51.250;-1.118;2023-02-28T06:16:46;102018.44;;;6.23
70668;BMP280;58242;51.250;-1.118;2023-02-28T06:19:11;102014.97;;;6.23
70668;BMP280;58242;51.250;-1.118;2023-02-28T06:21:37;102020.28;;;6.23
70668;BMP280;58242;51.250;-1.118;2023-02-28T06:24:03;102020.56;;;6.21
70668;BMP280;58242;51.250;-1.118;2023-02-28T06:26:29;102030.38;;;6.21
70668;BMP280;58242;51.250;-1.118;2023-02-28T06:28:54;102023.22;;;6.21
70668;BMP280;58242;51.250;-1.118;2023-02-28T06:31:20;102019.97;;;6.19
70668;BMP280;58242;51.250;-1.118;2023-02-28T06:33:46;102024.50;;;6.19
70668;BMP280;58242;51.250;-1.118;2023-02-28T06:36:13;102029.00;;;6.18
70668;BMP280;58242;51.250;-1.118;2023-02-28T06:38:39;102027.66;;;6.16
70668;BMP280;58242;51.250;-1.118;2023-02-28T06:41:05;102032.16;;;6.15
70668;BMP280;58242;51.250;-1.118;2023-02-28T06:43:35;102027.13;;;6.14
70668;BMP280;58242;51.250;-1.118;2023-02-28T06:46:03;102027.88;;;6.14
70668;BMP280;58242;51.250;-1.118;2023-02-28T06:48:28;102031.63;;;6.14
70668;BMP280;58242;51.250;-1.118;2023-02-28T06:51:16;102028.38;;;6.12
70668;BMP280;58242;51.250;-1.118;2023-02-28T06:53:42;102026.78;;;6.11
70668;BMP280;58242;51.250;-1.118;2023-02-28T06:56:12;102031.31;;;6.10
70668;BMP280;58242;51.250;-1.118;2023-02-28T06:58:38;102037.41;;;6.11
70668;BMP280;58242;51.250;-1.118;2023-02-28T07:01:05;102030.25;;;6.11
70668;BMP280;58242;51.250;-1.118;2023-02-28T07:03:31;102026.78;;;6.11
70668;BMP280;58242;51.250;-1.118;2023-02-28T07:05:56;102026.78;;;6.11
70668;BMP280;58242;51.250;-1.118;2023-02-28T07:08:25;102038.22;;;6.11
70668;BMP280;58242;51.250;-1.118;2023-02-28T07:10:53;102032.66;;;6.13
70668;BMP280;58242;51.250;-1.118;2023-02-28T07:13:18;102030.25;;;6.11
70668;BMP280;58242;51.250;-1.118;2023-02-28T07:15:44;102030.00;;;6.13
70668;BMP280;58242;51.250;-1.118;2023-02-28T07:18:09;102035.06;;;6.14
70668;BMP280;58242;51.250;-1.118;2023-02-28T07:20:35;102041.97;;;6.15
70668;BMP280;58242;51.250;-1.118;2023-02-28T07:23:00;102041.75;;;6.16
70668;BMP280;58242;51.250;-1.118;2023-02-28T07:25:27;102042.28;;;6.18
70668;BMP280;58242;51.250;-1.118;2023-02-28T07:27:54;102043.38;;;6.22
70668;BMP280;58242;51.250;-1.118;2023-02-28T07:30:19;102039.75;;;6.28
70668;BMP280;58242;51.250;-1.118;2023-02-28T07:32:45;102046.22;;;6.37
70668;BMP280;58242;51.250;-1.118;2023-02-28T07:35:10;102036.50;;;6.47
70668;BMP280;58242;51.250;-1.118;2023-02-28T07:37:36;102044.06;;;6.60
70668;BMP280;58242;51.250;-1.118;2023-02-28T07:40:06;102044.75;;;6.76
70668;BMP280;58242;51.250;-1.118;2023-02-28T07:42:34;102037.22;;;6.94
70668;BMP280;58242;51.250;-1.118;2023-02-28T07:44:59;102038.19;;;7.14
70668;BMP280;58242;51.250;-1.118;2023-02-28T07:47:24;102038.06;;;7.35
70668;BMP280;58242;51.250;-1.118;2023-02-28T07:49:50;102043.28;;;7.56
70668;BMP280;58242;51.250;-1.118;2023-02-28T07:52:15;102055.66;;;7.76
70668;BMP280;58242;51.250;-1.118;2023-02-28T07:54:40;102049.59;;;7.90
70668;BMP280;58242;51.250;-1.118;2023-02-28T07:57:06;102053.41;;;8.04
70668;BMP280;58242;51.250;-1.118;2023-02-28T07:59:31;102045.19;;;8.15
70668;BMP280;58242;51.250;-1.118;2023-02-28T08:01:57;102049.25;;;8.27
70668;BMP280;58242;51.250;-1.118;2023-02-28T08:04:22;102043.16;;;8.37
70668;BMP280;58242;51.250;-1.118;2023-02-28T08:06:48;102039.69;;;8.46
70668;BMP280;58242;51.250;-1.118;2023-02-28T08:09:13;102037.31;;;8.54
70668;BMP280;58242;51.250;-1.118;2023-02-28T08:11:39;102044.53;;;8.63
70668;BMP280;58242;51.250;-1.118;2023-02-28T08:14:04;102042.16;;;8.71
70668;BMP280;58242;51.250;-1.118;2023-02-28T08:16:31;102044.03;;;8.81
70668;BMP280;58242;51.250;-1.118;2023-02-28T08:18:56;102043.78;;;8.92
70668;BMP280;58242;51.250;-1.118;2023-02-28T08:21:21;102047.78;;;9.04
70668;BMP280;58242;51.250;-1.118;2023-02-28T08:23:48;102043.50;;;9.18
70668;BMP280;58242;51.250;-1.118;2023-02-28T08:26:15;102043.25;;;9.34
70668;BMP280;58242;51.250;-1.118;2023-02-28T08:28:40;102041.06;;;9.50
70668;BMP280;58242;51.250;-1.118;2023-02-28T08:31:13;102041.84;;;9.65
70668;BMP280;58242;51.250;-1.118;2023-02-28T08:33:40;102039.44;;;9.83
70668;BMP280;58242;51.250;-1.118;2023-02-28T08:36:07;102035.91;;;9.97
70668;BMP280;58242;51.250;-1.118;2023-02-28T08:38:32;102038.50;;;10.12
70668;BMP280;58242;51.250;-1.118;2023-02-28T08:41:03;102034.16;;;10.30
70668;BMP280;58242;51.250;-1.118;2023-02-28T08:43:31;102038.59;;;10.49
70668;BMP280;58242;51.250;-1.118;2023-02-28T08:45:56;102033.09;;;10.74
70668;BMP280;58242;51.250;-1.118;2023-02-28T08:48:26;102027.75;;;11.06
70668;BMP280;58242;51.250;-1.118;2023-02-28T08:53:20;102022.50;;;12.61
70668;BMP280;58242;51.250;-1.118;2023-02-28T08:55:46;102022.38;;;13.64
70668;BMP280;58242;51.250;-1.118;2023-02-28T08:58:11;102023.09;;;14.70
70668;BMP280;58242;51.250;-1.118;2023-02-28T09:00:36;102012.88;;;15.74
70668;BMP280;58242;51.250;-1.118;2023-02-28T09:03:02;102010.56;;;16.60
70668;BMP280;58242;51.250;-1.118;2023-02-28T09:05:27;102010.09;;;17.15
70668;BMP280;58242;51.250;-1.118;2023-02-28T09:07:54;102007.38;;;17.40
70668;BMP280;58242;51.250;-1.118;2023-02-28T09:10:19;102013.22;;;17.50
70668;BMP280;58242;51.250;-1.118;2023-02-28T09:12:44;102013.22;;;17.50
70668;BMP280;58242;51.250;-1.118;2023-02-28T09:15:12;102016.22;;;17.49
70668;BMP280;58242;51.250;-1.118;2023-02-28T09:17:38;102011.81;;;17.36
70668;BMP280;58242;51.250;-1.118;2023-02-28T09:20:04;102022.34;;;17.21
70668;BMP280;58242;51.250;-1.118;2023-02-28T09:22:30;102012.03;;;17.07
70668;BMP280;58242;51.250;-1.118;2023-02-28T09:24:55;102018.56;;;16.89
70668;BMP280;58242;51.250;-1.118;2023-02-28T09:27:20;102011.25;;;16.73
70668;BMP280;58242;51.250;-1.118;2023-02-28T09:29:46;102008.97;;;16.59
70668;BMP280;58242;51.250;-1.118;2023-02-28T09:32:11;102006.91;;;16.47
70668;BMP280;58242;51.250;-1.118;2023-02-28T09:34:37;102017.06;;;16.34
70668;BMP280;58242;51.250;-1.118;2023-02-28T09:37:03;102011.63;;;16.26
70668;BMP280;58242;51.250;-1.118;2023-02-28T09:39:28;102014.97;;;16.23
70668;BMP280;58242;51.250;-1.118;2023-02-28T09:41:55;102015.56;;;16.11
70668;BMP280;58242;51.250;-1.118;2023-02-28T09:44:39;102016.66;;;15.94
70668;BMP280;58242;51.250;-1.118;2023-02-28T09:49:50;102019.13;;;15.61
70668;BMP280;58242;51.250;-1.118;2023-02-28T09:52:21;102016.97;;;15.41
70668;BMP280;58242;51.250;-1.118;2023-02-28T09:54:48;102012.91;;;15.23
70668;BMP280;58242;51.250;-1.118;2023-02-28T09:57:32;102014.22;;;15.04
70668;BMP280;58242;51.250;-1.118;2023-02-28T10:00:15;102023.22;;;14.86
70668;BMP280;58242;51.250;-1.118;2023-02-28T10:03:00;102024.66;;;14.71
70668;BMP280;58242;51.250;-1.118;2023-02-28T10:08:16;102025.94;;;14.38
70668;BMP280;58242;51.250;-1.118;2023-02-28T10:10:48;102023.88;;;14.22
70668;BMP280;58242;51.250;-1.118;2023-02-28T10:16:01;102025.41;;;13.89
70668;BMP280;58242;51.250;-1.118;2023-02-28T10:18:40;102024.56;;;13.75
70668;BMP280;58242;51.250;-1.118;2023-02-28T10:21:16;102016.19;;;13.64
70668;BMP280;58242;51.250;-1.118;2023-02-28T10:23:43;102031.69;;;13.53
70668;BMP280;58242;51.250;-1.118;2023-02-28T10:26:14;102027.50;;;13.48
70668;BMP280;58242;51.250;-1.118;2023-02-28T10:28:44;102030.59;;;13.41
70668;BMP280;58242;51.250;-1.118;2023-02-28T10:31:19;102025.28;;;13.36
70668;BMP280;58242;51.250;-1.118;2023-02-28T10:33:44;102017.31;;;13.32
70668;BMP280;58242;51.250;-1.118;2023-02-28T10:36:14;102015.72;;;13.31
70668;BMP280;58242;51.250;-1.118;2023-02-28T10:38:40;102015.72;;;13.31
70668;BMP280;58242;51.250;-1.118;2023-02-28T10:41:09;102014.16;;;13.30
70668;BMP280;58242;51.250;-1.118;2023-02-28T10:43:36;102017.09;;;13.28
70668;BMP280;58242;51.250;-1.118;2023-02-28T10:46:10;102017.09;;;13.28
70668;BMP280;58242;51.250;-1.118;2023-02-28T10:48:39;102016.50;;;13.31
70668;BMP280;58242;51.250;-1.118;2023-02-28T10:51:10;102008.47;;;13.31
70668;BMP280;58242;51.250;-1.118;2023-02-28T10:53:48;102016.31;;;13.28
70668;BMP280;58242;51.250;-1.118;2023-02-28T10:56:22;102009.94;;;13.24
70668;BMP280;58242;51.250;-1.118;2023-02-28T10:59:02;102008.44;;;13.18
70668;BMP280;58242;51.250;-1.118;2023-02-28T11:04:16;102004.75;;;13.14
70668;BMP280;58242;51.250;-1.118;2023-02-28T11:06:42;102010.91;;;13.15
70668;BMP280;58242;51.250;-1.118;2023-02-28T11:09:27;101999.44;;;13.09
70668;BMP280;58242;51.250;-1.118;2023-02-28T11:11:54;102001.66;;;13.07
70668;BMP280;58242;51.250;-1.118;2023-02-28T11:16:45;101996.34;;;13.02
70668;BMP280;58242;51.250;-1.118;2023-02-28T11:19:22;101997.75;;;13.00
70668;BMP280;58242;51.250;-1.118;2023-02-28T11:21:54;101992.38;;;13.00
70668;BMP280;58242;51.250;-1.118;2023-02-28T11:24:29;101991.25;;;13.01
70668;BMP280;58242;51.250;-1.118;2023-02-28T11:26:56;101990.19;;;13.02
70668;BMP280;58242;51.250;-1.118;2023-02-28T11:32:12;101968.63;;;13.07
70668;BMP280;58242;51.250;-1.118;2023-02-28T11:34:38;101972.31;;;13.11
70668;BMP280;58242;51.250;-1.118;2023-02-28T11:37:09;101990.50;;;13.14
70668;BMP280;58242;51.250;-1.118;2023-02-28T11:39:36;101979.50;;;13.15
70668;BMP280;58242;51.250;-1.118;2023-02-28T11:42:43;101976.81;;;13.15
70668;BMP280;58242;51.250;-1.118;2023-02-28T11:45:25;101974.88;;;13.16
70668;BMP280;58242;51.250;-1.118;2023-02-28T11:48:15;101981.66;;;13.13
70668;BMP280;58242;51.250;-1.118;2023-02-28T11:56:06;101963.94;;;13.12
70668;BMP280;58242;51.250;-1.118;2023-02-28T12:03:57;101954.00;;;13.13
70668;BMP280;58242;51.250;-1.118;2023-02-28T12:06:28;101947.53;;;13.14
70668;BMP280;58242;51.250;-1.118;2023-02-28T12:11:56;101939.97;;;13.16
70668;BMP280;58242;51.250;-1.118;2023-02-28T12:27:29;101924.78;;;13.24
70668;BMP280;58242;51.250;-1.118;2023-02-28T12:30:38;101923.56;;;13.17
70668;BMP280;58242;51.250;-1.118;2023-02-28T12:32:48;101923.19;;;13.23
70668;BMP280;58242;51.250;-1.118;2023-02-28T12:35:19;101924.16;;;13.27
70668;BMP280;58242;51.250;-1.118;2023-02-28T12:37:58;101914.75;;;13.30
70668;BMP280;58242;51.250;-1.118;2023-02-28T12:40:54;101916.84;;;13.33
70668;BMP280;58242;51.250;-1.118;2023-02-28T12:43:22;101905.47;;;13.35
70668;BMP280;58242;51.250;-1.118;2023-02-28T12:45:56;101894.34;;;13.42
70668;BMP280;58242;51.250;-1.118;2023-02-28T12:48:38;101876.13;;;13.52
70668;BMP280;58242;51.250;-1.118;2023-02-28T12:51:06;101847.16;;;13.62
70668;BMP280;58242;51.250;-1.118;2023-02-28T12:59:03;101837.69;;;14.12
70668;BMP280;58242;51.250;-1.118;2023-02-28T13:01:45;101827.78;;;14.21
70668;BMP280;58242;51.250;-1.118;2023-02-28T13:08:09;101833.84;;;14.48
70668;BMP280;58242;51.250;-1.118;2023-02-28T13:10:15;101835.31;;;14.54
70668;BMP280;58242;51.250;-1.118;2023-02-28T13:12:50;101830.91;;;14.57
70668;BMP280;58242;51.250;-1.118;2023-02-28T13:15:24;101828.56;;;14.64
70668;BMP280;58242;51.250;-1.118;2023-02-28T13:17:52;101825.25;;;14.67
70668;BMP280;58242;51.250;-1.118;2023-02-28T13:20:21;101836.81;;;14.68
70668;BMP280;58242;51.250;-1.118;2023-02-28T13:22:52;101837.44;;;14.65
70668;BMP280;58242;51.250;-1.118;2023-02-28T13:27:58;101807.66;;;14.61
70668;BMP280;58242;51.250;-1.118;2023-02-28T13:33:37;101801.69;;;14.72
70668;BMP280;58242;51.250;-1.118;2023-02-28T13:36:31;101805.53;;;14.80
70668;BMP280;58242;51.250;-1.118;2023-02-28T13:38:59;101796.16;;;14.77
70668;BMP280;58242;51.250;-1.118;2023-02-28T13:44:04;101780.16;;;14.72
70668;BMP280;58242;51.250;-1.118;2023-02-28T13:46:32;101773.81;;;14.69
70668;BMP280;58242;51.250;-1.118;2023-02-28T13:54:58;101777.81;;;14.50
70668;BMP280;58242;51.250;-1.118;2023-02-28T14:00:42;101761.63;;;14.41
70668;BMP280;58242;51.250;-1.118;2023-02-28T14:03:41;101751.94;;;14.40
70668;BMP280;58242;51.250;-1.118;2023-02-28T14:06:27;101748.84;;;14.47
70668;BMP280;58242;51.250;-1.118;2023-02-28T14:11:37;101762.19;;;14.60
70668;BMP280;58242;51.250;-1.118;2023-02-28T14:14:04;101753.97;;;14.65
70668;BMP280;58242;51.250;-1.118;2023-02-28T14:16:45;101756.06;;;14.68
70668;BMP280;58242;51.250;-1.118;2023-02-28T14:19:15;101756.22;;;14.71
70668;BMP280;58242;51.250;-1.118;2023-02-28T14:29:42;101739.00;;;14.80
70668;BMP280;58242;51.250;-1.118;2023-02-28T14:35:02;101731.41;;;14.82
70668;BMP280;58242;51.250;-1.118;2023-02-28T14:37:31;101731.72;;;14.81
70668;BMP280;58242;51.250;-1.118;2023-02-28T14:39:59;101734.22;;;14.77
70668;BMP280;58242;51.250;-1.118;2023-02-28T14:42:34;101725.50;;;14.72
70668;BMP280;58242;51.250;-1.118;2023-02-28T14:45:00;101729.13;;;14.68
70668;BMP280;58242;51.250;-1.118;2023-02-28T14:47:30;101730.22;;;14.67
70668;BMP280;58242;51.250;-1.118;2023-02-28T14:50:00;101739.22;;;14.62
70668;BMP280;58242;51.250;-1.118;2023-02-28T14:52:28;101741.75;;;14.59
70668;BMP280;58242;51.250;-1.118;2023-02-28T14:54:59;101735.09;;;14.56
70668;BMP280;58242;51.250;-1.118;2023-02-28T14:57:30;101735.41;;;14.55
70668;BMP280;58242;51.250;-1.118;2023-02-28T15:02:40;101741.53;;;14.47
70668;BMP280;58242;51.250;-1.118;2023-02-28T15:07:47;101727.91;;;14.44
70668;BMP280;58242;51.250;-1.118;2023-02-28T15:10:23;101724.44;;;14.43
70668;BMP280;58242;51.250;-1.118;2023-02-28T15:13:11;101717.47;;;14.42
70668;BMP280;58242;51.250;-1.118;2023-02-28T15:15:58;101709.84;;;14.44
70668;BMP280;58242;51.250;-1.118;2023-02-28T15:18:37;101711.94;;;14.47
70668;BMP280;58242;51.250;-1.118;2023-02-28T15:21:07;101708.13;;;14.48
70668;BMP280;58242;51.250;-1.118;2023-02-28T15:23:36;101695.47;;;14.49
70668;BMP280;58242;51.250;-1.118;2023-02-28T15:26:02;101704.06;;;14.51
70668;BMP280;58242;51.250;-1.118;2023-02-28T15:28:28;101695.78;;;14.47
70668;BMP280;58242;51.250;-1.118;2023-02-28T15:30:59;101697.72;;;14.47
70668;BMP280;58242;51.250;-1.118;2023-02-28T15:33:27;101682.94;;;14.44
70668;BMP280;58242;51.250;-1.118;2023-02-28T15:36:11;101686.28;;;14.41
70668;BMP280;58242;51.250;-1.118;2023-02-28T15:38:38;101689.25;;;14.40
70668;BMP280;58242;51.250;-1.118;2023-02-28T15:41:03;101691.66;;;14.41
70668;BMP280;58242;51.250;-1.118;2023-02-28T15:43:35;101684.06;;;14.43
70668;BMP280;58242;51.250;-1.118;2023-02-28T15:48:35;101674.75;;;14.49
70668;BMP280;58242;51.250;-1.118;2023-02-28T15:53:40;101671.44;;;14.52
70668;BMP280;58242;51.250;-1.118;2023-02-28T15:56:32;101663.97;;;14.49
70668;BMP280;58242;51.250;-1.118;2023-02-28T15:59:01;101660.50;;;14.49
70668;BMP280;58242;51.250;-1.118;2023-02-28T16:01:28;101667.31;;;14.46
70668;BMP280;58242;51.250;-1.118;2023-02-28T16:04:01;101661.13;;;14.46
70668;BMP280;58242;51.250;-1.118;2023-02-28T16:09:00;101671.22;;;14.40
70668;BMP280;58242;51.250;-1.118;2023-02-28T16:11:26;101661.38;;;14.36
70668;BMP280;58242;51.250;-1.118;2023-02-28T16:13:52;101668.19;;;14.34
70668;BMP280;58242;51.250;-1.118;2023-02-28T16:16:22;101674.66;;;14.33